Ridge Mills, New York
Current Conditions -  °F | °C
As of 2:53 AM on Monday 24 Nov 2014 (Local Time) from KRME Reporting Station
Light Rain Light Rain  
Wind Chill: 41°   Ceiling: 9500
Heat Index: 47°   Visibility: 10mi
Dew Point: 41°   Wind: 13mph
Humidity: 80%   Direction: 120°ESE
Pressure: 29.72"   Gusts: NA
Location:  43.2466°N, 75.4624°W
Report Text: KRME 240753Z AUTO 12011KT 10SM -RA OVC095 08/05 A2972 RMK AO2 RAB19 SLP065 P0001 T00830050
Loading
Personal Weather Stations






























Interactive Weather Map New forecast layout! Learn more

10-Day Weather Forecast

Advertisements
Track Severe Weather on mobile